Terminal Aerodrome Forecast
Issued by NWS North Platte, NE

Home | Current Version | Previous Version | Text Only | Print | Product List | Glossary Off
Versions: 1 2 3 4 5 6 7 8 9 10 11 12 13 14 15 16 17

000
FTUS43 KLBF 211019 AAB
TAFVTN
TAF AMD
KVTN 211019Z 2110/2206 31016G24KT P6SM VCSH BKN100
     FM211800 31015G23KT P6SM BKN100
     FM212000 31014G21KT P6SM SCT250
     FM220000 30009KT P6SM FEW250=

USA.gov is the U.S. government's official web portal to all federal, state and local government web resources and services.